createdAt,value
2022-10-21T00:02:08.299Z,19.98
2022-10-21T00:04:35.960Z,19.73
2022-10-21T00:07:04.068Z,21.17
2022-10-21T00:09:31.922Z,20.55
2022-10-21T00:11:59.531Z,20.63
2022-10-21T00:14:28.709Z,20.92
2022-10-21T00:16:56.359Z,19.40
2022-10-21T00:19:23.988Z,19.58
2022-10-21T00:21:51.691Z,19.95
2022-10-21T00:24:19.461Z,20.10
2022-10-21T00:26:47.093Z,18.98
2022-10-21T00:29:14.861Z,18.90
2022-10-21T00:31:43.885Z,19.52
2022-10-21T00:34:11.547Z,20.45
2022-10-21T00:36:39.263Z,21.23
2022-10-21T00:39:07.001Z,19.98
2022-10-21T00:41:34.673Z,20.42
2022-10-21T00:44:04.586Z,20.50
2022-10-21T00:46:38.622Z,19.52
2022-10-21T00:49:13.703Z,20.10
2022-10-21T00:51:41.462Z,19.88
2022-10-21T00:54:10.086Z,19.75
2022-10-21T00:56:37.857Z,21.90
2022-10-21T00:59:06.193Z,20.38
2022-10-21T01:01:33.890Z,18.90
2022-10-21T01:04:03.691Z,19.35
2022-10-21T01:06:33.321Z,18.40
2022-10-21T01:09:01.281Z,19.38
2022-10-21T01:11:29.594Z,19.77
2022-10-21T01:14:11.513Z,18.35
2022-10-21T01:16:47.364Z,17.85
2022-10-21T01:19:34.583Z,18.60
2022-10-21T01:22:10.898Z,17.98
2022-10-21T01:24:55.608Z,18.80
2022-10-21T01:27:30.664Z,18.63
2022-10-21T01:30:30.640Z,17.63
2022-10-21T01:33:08.096Z,18.23
2022-10-21T01:35:39.565Z,19.33
2022-10-21T01:38:10.620Z,18.60
2022-10-21T01:40:43.786Z,18.27
2022-10-21T01:43:17.199Z,18.98
2022-10-21T01:45:48.820Z,17.92
2022-10-21T01:48:19.377Z,17.70
2022-10-21T01:50:49.781Z,17.00
2022-10-21T01:53:18.002Z,19.10
2022-10-21T01:55:46.597Z,18.52
2022-10-21T01:58:17.743Z,17.77
2022-10-21T02:00:47.745Z,18.05
2022-10-21T02:03:18.394Z,18.35
2022-10-21T02:05:46.136Z,18.80
2022-10-21T02:08:13.875Z,19.27
2022-10-21T02:10:45.001Z,19.25
2022-10-21T02:13:15.398Z,17.88
2022-10-21T02:15:44.182Z,18.85
2022-10-21T02:18:20.839Z,18.75
2022-10-21T02:20:50.934Z,19.67
2022-10-21T02:23:20.786Z,20.63
2022-10-21T02:25:51.355Z,18.02
2022-10-21T02:28:19.852Z,20.00
2022-10-21T02:30:56.756Z,19.20
2022-10-21T02:33:34.829Z,17.27
2022-10-21T02:36:08.466Z,18.63
2022-10-21T02:38:40.123Z,19.67
2022-10-21T02:41:11.026Z,18.88
2022-10-21T02:43:42.303Z,18.75
2022-10-21T02:46:11.451Z,19.30
2022-10-21T02:48:42.046Z,17.90
2022-10-21T02:51:09.846Z,19.55
2022-10-21T02:53:38.137Z,20.42
2022-10-21T02:56:06.246Z,18.13
2022-10-21T02:58:34.150Z,18.67
2022-10-21T03:01:01.986Z,18.50
2022-10-21T03:03:30.509Z,18.70
2022-10-21T03:05:59.551Z,18.38
2022-10-21T03:08:27.296Z,17.92
2022-10-21T03:10:55.100Z,17.83
2022-10-21T03:13:23.011Z,17.77
2022-10-21T03:15:50.886Z,18.30
2022-10-21T03:18:18.977Z,17.25
2022-10-21T03:20:50.326Z,18.17
2022-10-21T03:23:19.485Z,18.77
2022-10-21T03:25:47.309Z,18.15
2022-10-21T03:28:15.074Z,17.52
2022-10-21T03:30:42.784Z,17.55
2022-10-21T03:33:10.472Z,17.85
2022-10-21T03:35:38.123Z,18.52
2022-10-21T03:38:05.841Z,18.38
2022-10-21T03:40:34.999Z,18.60
2022-10-21T03:43:02.665Z,17.58
2022-10-21T03:45:30.359Z,18.23
2022-10-21T03:47:58.034Z,17.80
2022-10-21T03:50:26.821Z,16.90
2022-10-21T03:52:55.006Z,18.10
2022-10-21T03:55:24.982Z,17.70
2022-10-21T03:57:54.317Z,16.63
2022-10-21T04:00:22.239Z,16.85
2022-10-21T04:02:50.219Z,17.17
2022-10-21T04:05:18.537Z,16.73
2022-10-21T04:07:50.603Z,16.08
2022-10-21T04:10:21.124Z,16.25
2022-10-21T04:12:48.783Z,17.67
2022-10-21T04:15:17.977Z,18.60
2022-10-21T04:17:46.727Z,17.02
2022-10-21T04:20:14.707Z,18.63
2022-10-21T04:22:42.398Z,16.30
2022-10-21T04:25:10.388Z,16.52
2022-10-21T04:27:38.057Z,15.98
2022-10-21T04:30:06.841Z,15.82
2022-10-21T04:32:36.554Z,16.42
2022-10-21T04:35:05.021Z,16.10
2022-10-21T04:37:32.680Z,14.77
2022-10-21T04:40:00.441Z,15.45
2022-10-21T04:45:00.671Z,15.57
2022-10-21T04:47:28.353Z,15.13
2022-10-21T04:49:57.386Z,14.27
2022-10-21T04:52:25.059Z,14.55
2022-10-21T04:54:52.728Z,14.75
2022-10-21T04:57:20.502Z,13.60
2022-10-21T04:59:48.199Z,13.23
2022-10-21T05:02:15.852Z,15.27
2022-10-21T05:04:43.547Z,15.18
2022-10-21T05:07:12.582Z,14.48
2022-10-21T05:09:40.390Z,15.43
2022-10-21T05:12:08.116Z,13.57
2022-10-21T05:14:35.781Z,14.10
2022-10-21T05:17:03.443Z,14.30
2022-10-21T05:19:31.510Z,14.77
2022-10-21T05:21:59.380Z,14.38
2022-10-21T05:24:28.573Z,13.50
2022-10-21T05:26:56.301Z,15.35
2022-10-21T05:29:23.928Z,15.40
2022-10-21T05:31:51.613Z,14.65
2022-10-21T05:34:19.434Z,15.13
2022-10-21T05:36:48.580Z,15.57
2022-10-21T05:39:16.720Z,15.55
2022-10-21T05:41:47.936Z,15.90
2022-10-21T05:44:16.314Z,15.32
2022-10-21T05:46:43.980Z,15.27
2022-10-21T05:49:12.822Z,14.93
2022-10-21T05:51:40.524Z,15.77
2022-10-21T05:54:08.218Z,15.23
2022-10-21T05:56:35.952Z,14.98
2022-10-21T05:59:07.872Z,14.57
2022-10-21T06:01:37.833Z,14.48
2022-10-21T06:04:05.795Z,15.95
2022-10-21T06:06:33.713Z,16.05
2022-10-21T06:09:01.722Z,15.82
2022-10-21T06:11:29.576Z,17.52
2022-10-21T06:13:57.362Z,17.08
2022-10-21T06:16:26.463Z,16.35
2022-10-21T06:18:54.134Z,16.33
2022-10-21T06:21:22.757Z,16.30
2022-10-21T06:23:54.105Z,17.70
2022-10-21T06:26:21.904Z,17.67
2022-10-21T06:28:49.710Z,16.17
2022-10-21T06:31:18.830Z,16.73
2022-10-21T06:33:48.020Z,16.15
2022-10-21T06:36:15.779Z,16.85
2022-10-21T06:38:43.456Z,17.58
2022-10-21T06:41:13.797Z,17.48
2022-10-21T06:43:41.922Z,17.50
2022-10-21T06:46:11.294Z,16.40
2022-10-21T06:48:39.222Z,16.42
2022-10-21T06:51:09.735Z,16.88
2022-10-21T06:53:39.415Z,17.00
2022-10-21T06:56:09.750Z,16.90
2022-10-21T06:58:38.317Z,16.48
2022-10-21T07:01:16.744Z,17.38
2022-10-21T07:03:56.224Z,18.10
2022-10-21T07:06:25.750Z,16.95
2022-10-21T07:08:58.164Z,16.88
2022-10-21T07:11:26.956Z,16.60
2022-10-21T07:13:54.689Z,17.63
2022-10-21T07:16:23.586Z,17.95
2022-10-21T07:18:51.342Z,16.35
2022-10-21T07:21:21.253Z,16.42
2022-10-21T07:23:52.199Z,16.45
2022-10-21T07:26:20.764Z,16.15
2022-10-21T07:28:49.229Z,15.27
2022-10-21T07:31:17.451Z,15.85
2022-10-21T07:33:45.384Z,14.85
2022-10-21T07:36:15.182Z,15.73
2022-10-21T07:38:46.463Z,15.20
2022-10-21T07:41:19.371Z,14.87
2022-10-21T07:43:47.568Z,13.27
2022-10-21T07:46:15.836Z,13.90
2022-10-21T07:48:43.587Z,14.10
2022-10-21T07:51:14.004Z,14.15
2022-10-21T07:53:42.201Z,14.82
2022-10-21T07:56:14.377Z,14.30
2022-10-21T08:01:12.124Z,14.15
2022-10-21T08:03:40.499Z,13.95
2022-10-21T08:06:09.573Z,16.25
2022-10-21T08:08:37.711Z,14.32
2022-10-21T08:11:06.241Z,14.50
2022-10-21T08:13:34.980Z,14.80
2022-10-21T08:16:06.224Z,14.13
2022-10-21T08:18:34.106Z,15.17
2022-10-21T08:21:03.886Z,15.52
2022-10-21T08:23:32.402Z,13.88
2022-10-21T08:26:01.425Z,14.82
2022-10-21T08:28:30.378Z,15.00
2022-10-21T08:31:06.009Z,14.82
2022-10-21T08:33:33.668Z,15.02
2022-10-21T08:36:06.078Z,15.13
2022-10-21T08:38:33.908Z,15.25
2022-10-21T08:41:02.187Z,14.90
2022-10-21T08:43:31.222Z,14.60
2022-10-21T08:46:02.267Z,16.02
2022-10-21T08:48:35.527Z,15.63
2022-10-21T08:51:05.257Z,15.73
2022-10-21T08:53:36.604Z,16.55
2022-10-21T08:56:07.195Z,17.03
2022-10-21T08:58:35.172Z,16.60
2022-10-21T09:01:04.794Z,16.42
2022-10-21T09:03:38.468Z,17.23
2022-10-21T09:06:23.790Z,17.13
2022-10-21T09:09:01.448Z,18.15
2022-10-21T09:11:37.053Z,18.17
2022-10-21T09:14:34.088Z,15.88
2022-10-21T09:17:07.547Z,16.55
2022-10-21T09:19:43.233Z,15.52
2022-10-21T09:22:40.788Z,15.65
2022-10-21T09:25:19.969Z,16.83
2022-10-21T09:27:56.511Z,16.67
2022-10-21T09:30:26.076Z,15.65
2022-10-21T09:32:58.024Z,15.50
2022-10-21T09:35:33.685Z,14.88
2022-10-21T09:38:04.244Z,16.80
2022-10-21T09:40:33.945Z,18.23
2022-10-21T09:43:02.329Z,17.40
2022-10-21T09:45:34.133Z,17.10
2022-10-21T09:48:04.388Z,17.83
2022-10-21T09:50:34.326Z,16.85
2022-10-21T09:53:06.558Z,16.95
2022-10-21T09:58:03.326Z,17.48
2022-10-21T10:00:48.527Z,18.45
2022-10-21T10:03:31.185Z,18.83
2022-10-21T10:06:00.812Z,17.85
2022-10-21T10:08:33.858Z,18.50
2022-10-21T10:11:21.878Z,17.60
2022-10-21T10:13:51.897Z,18.17
2022-10-21T10:16:25.651Z,18.80
2022-10-21T10:18:55.574Z,17.63
2022-10-21T10:21:25.506Z,17.88
2022-10-21T10:23:55.232Z,18.80
2022-10-21T10:26:26.951Z,17.85
2022-10-21T10:28:59.092Z,18.20
2022-10-21T10:34:04.721Z,17.33
2022-10-21T10:36:38.635Z,17.42
2022-10-21T10:39:09.555Z,17.23
2022-10-21T10:41:40.000Z,17.85
2022-10-21T10:44:15.125Z,16.70
2022-10-21T10:46:44.676Z,19.10
2022-10-21T10:49:22.986Z,21.85
2022-10-21T10:52:07.072Z,18.52
2022-10-21T12:07:48.948Z,16.15
2022-10-21T12:14:00.943Z,15.25
2022-10-21T12:16:59.976Z,15.25
2022-10-21T12:19:29.473Z,15.07
2022-10-21T12:22:28.175Z,15.50
2022-10-21T12:25:03.493Z,15.52
2022-10-21T12:28:13.150Z,16.17
2022-10-21T12:31:36.403Z,15.00
2022-10-21T12:34:05.266Z,14.55
2022-10-21T12:36:41.386Z,16.50
2022-10-21T12:39:40.676Z,15.90
2022-10-21T12:42:13.559Z,14.50
2022-10-21T12:44:46.675Z,13.77
2022-10-21T12:47:24.857Z,15.45
2022-10-21T12:50:07.725Z,14.35
2022-10-21T12:52:38.584Z,13.73
2022-10-21T12:55:08.895Z,14.13
2022-10-21T12:57:39.827Z,14.20
2022-10-21T13:00:51.832Z,13.32
2022-10-21T13:03:22.359Z,12.97
2022-10-21T13:06:06.738Z,13.13
2022-10-21T13:08:53.434Z,14.13
2022-10-21T13:11:23.955Z,13.20
2022-10-21T13:14:24.081Z,12.85
2022-10-21T13:16:53.246Z,12.95
2022-10-21T13:19:33.948Z,12.27
2022-10-21T13:22:03.393Z,12.07
2022-10-21T13:24:32.990Z,12.55
2022-10-21T13:27:02.184Z,12.38
2022-10-21T13:29:43.822Z,11.40
2022-10-21T13:32:25.820Z,11.93
2022-10-21T13:35:00.354Z,12.63
2022-10-21T13:37:31.522Z,11.93
2022-10-21T13:40:00.616Z,12.20
2022-10-21T13:42:33.754Z,12.38
2022-10-21T13:45:19.521Z,12.20
2022-10-21T13:48:00.476Z,12.63
2022-10-21T13:50:31.569Z,11.77
2022-10-21T13:52:59.998Z,12.32
2022-10-21T13:55:27.861Z,13.55
2022-10-21T13:57:56.971Z,11.60
2022-10-21T14:00:26.584Z,12.07
2022-10-21T14:03:00.546Z,12.32
2022-10-21T14:05:34.190Z,12.38
2022-10-21T14:08:02.334Z,11.68
2022-10-21T14:10:31.012Z,11.52
2022-10-21T14:15:37.705Z,11.40
2022-10-21T14:18:08.810Z,11.45
2022-10-21T14:20:39.352Z,12.68
2022-10-21T14:23:09.768Z,11.20
2022-10-21T14:25:38.959Z,11.45
2022-10-21T14:28:07.561Z,11.40
2022-10-21T14:30:37.843Z,11.63
2022-10-21T14:33:11.849Z,10.75
2022-10-21T14:35:41.236Z,10.75
2022-10-21T14:38:28.804Z,12.18
2022-10-21T14:43:33.789Z,11.55
2022-10-21T14:46:03.467Z,11.88
2022-10-21T14:48:51.591Z,11.57
2022-10-21T14:51:21.524Z,11.20
2022-10-21T14:53:54.987Z,11.85
2022-10-21T14:56:30.642Z,11.48
2022-10-21T14:58:59.896Z,11.77
2022-10-21T15:01:28.147Z,11.60
2022-10-21T16:06:00.820Z,11.02
2022-10-21T16:08:48.190Z,12.23
2022-10-21T17:40:25.577Z,12.77
2022-10-21T17:42:54.017Z,12.45
2022-10-21T17:45:22.856Z,12.07
2022-10-21T17:47:50.815Z,11.40
2022-10-21T17:50:23.462Z,11.85
2022-10-21T17:52:51.809Z,11.98
2022-10-21T17:55:19.770Z,12.35
2022-10-21T17:57:48.849Z,11.70
2022-10-21T18:00:16.679Z,11.40
2022-10-21T18:02:44.528Z,10.80
2022-10-21T18:05:12.513Z,11.68
2022-10-21T18:07:40.496Z,11.65
2022-10-21T18:10:09.345Z,11.60
2022-10-21T18:12:37.258Z,14.38
2022-10-21T18:15:07.457Z,12.95
2022-10-21T18:17:37.777Z,11.85
2022-10-21T18:20:08.699Z,11.55
2022-10-21T18:22:36.524Z,11.50
2022-10-21T18:25:04.893Z,11.27
2022-10-21T18:27:32.878Z,11.73
2022-10-21T18:30:00.768Z,10.30
2022-10-21T18:32:30.070Z,9.98
2022-10-21T18:34:58.251Z,10.48
2022-10-21T18:37:26.007Z,10.93
2022-10-21T18:39:56.738Z,10.45
2022-10-21T18:42:26.766Z,10.65
2022-10-21T18:44:54.423Z,10.20
2022-10-21T18:47:22.219Z,10.85
2022-10-21T18:49:52.140Z,10.65
2022-10-21T18:52:19.804Z,10.27
2022-10-21T18:54:47.523Z,10.75
2022-10-21T18:57:15.215Z,10.38
2022-10-21T18:59:42.946Z,9.70
2022-10-21T19:02:14.054Z,10.75
2022-10-21T19:04:42.398Z,10.30
2022-10-21T19:07:11.478Z,10.73
2022-10-21T19:09:39.137Z,11.13
2022-10-21T19:12:10.529Z,10.60
2022-10-21T19:14:41.253Z,10.55
2022-10-21T19:17:10.166Z,9.95
2022-10-21T19:19:39.586Z,10.02
2022-10-21T19:22:07.326Z,10.60
2022-10-21T19:24:36.529Z,10.27
2022-10-21T19:27:04.270Z,9.80
2022-10-21T19:29:32.017Z,10.13
2022-10-21T19:31:59.658Z,10.23
2022-10-21T19:34:27.642Z,9.40
2022-10-21T19:36:55.458Z,11.10
2022-10-21T19:39:23.228Z,10.85
2022-10-21T19:41:52.357Z,10.25
2022-10-21T19:44:20.027Z,9.90
2022-10-21T19:46:47.759Z,11.45
2022-10-21T19:49:15.837Z,9.88
2022-10-21T19:51:43.523Z,10.30
2022-10-21T19:54:13.175Z,10.10
2022-10-21T19:56:41.337Z,9.45
2022-10-21T19:59:11.268Z,10.05
2022-10-21T20:01:39.078Z,10.15
2022-10-21T20:04:07.350Z,10.98
2022-10-21T20:06:36.509Z,9.38
2022-10-21T20:09:06.853Z,9.20
2022-10-21T20:11:34.965Z,9.20
2022-10-21T20:14:02.729Z,9.82
2022-10-21T20:16:33.880Z,9.38
2022-10-21T20:19:02.283Z,9.75
2022-10-21T20:21:31.354Z,9.48
2022-10-21T20:23:59.703Z,9.45
2022-10-21T20:26:28.752Z,9.40
2022-10-21T20:28:56.594Z,9.57
2022-10-21T20:31:24.444Z,9.60
2022-10-21T20:33:53.542Z,9.57
2022-10-21T20:36:23.363Z,9.65
2022-10-21T20:38:52.301Z,9.48
2022-10-21T20:41:22.104Z,9.55
2022-10-21T20:43:50.515Z,9.63
2022-10-21T20:46:19.308Z,10.13
2022-10-21T20:48:49.164Z,10.48
2022-10-21T20:51:20.337Z,9.80
2022-10-21T20:53:49.232Z,10.32
2022-10-21T20:56:17.109Z,8.82
2022-10-21T20:58:45.215Z,9.45
2022-10-21T21:01:14.673Z,9.80
2022-10-21T21:03:42.984Z,9.32
2022-10-21T21:06:11.672Z,10.13
2022-10-21T21:08:48.921Z,9.77
2022-10-21T21:11:21.832Z,10.23
2022-10-21T21:13:49.633Z,10.63
2022-10-21T21:16:18.989Z,10.13
2022-10-21T21:18:51.921Z,10.05
2022-10-21T21:21:20.832Z,10.73
2022-10-21T21:23:50.400Z,9.85
2022-10-21T21:26:20.297Z,10.50
2022-10-21T21:28:49.043Z,10.85
2022-10-21T21:31:16.744Z,10.18
2022-10-21T21:33:45.360Z,9.27
2022-10-21T21:36:13.504Z,9.90
2022-10-21T21:38:41.546Z,10.32
2022-10-21T21:41:11.151Z,10.95
2022-10-21T21:43:41.466Z,10.50
2022-10-21T21:46:09.409Z,10.95
2022-10-21T21:48:37.184Z,10.43
2022-10-21T21:51:07.456Z,10.70
2022-10-21T21:53:35.118Z,11.32
2022-10-21T21:56:03.621Z,11.02
2022-10-21T21:58:32.845Z,10.73
2022-10-21T22:01:09.373Z,11.10
2022-10-21T22:03:37.107Z,11.32
2022-10-21T22:06:05.487Z,10.60
2022-10-21T22:08:33.387Z,11.10
2022-10-21T22:11:08.397Z,11.23
2022-10-21T22:13:38.296Z,11.10
2022-10-21T22:16:06.803Z,10.50
2022-10-21T22:18:34.488Z,10.85
2022-10-21T22:21:02.872Z,10.10
2022-10-21T22:23:30.556Z,11.15
2022-10-21T22:25:58.941Z,10.65
2022-10-21T22:28:26.937Z,9.80
2022-10-21T22:30:58.764Z,10.60
2022-10-21T22:33:26.791Z,10.63
2022-10-21T22:35:54.546Z,10.10
2022-10-21T22:38:22.261Z,10.90
2022-10-21T22:40:53.523Z,10.73
2022-10-21T22:43:21.171Z,9.67
2022-10-21T22:45:48.900Z,10.10
2022-10-21T22:48:18.139Z,10.38
2022-10-21T22:50:45.844Z,9.80
2022-10-21T22:53:13.713Z,10.73
2022-10-21T22:55:41.477Z,10.10
2022-10-21T22:58:15.609Z,10.30
2022-10-21T23:00:43.335Z,10.50
2022-10-21T23:03:11.110Z,9.60
2022-10-21T23:05:40.164Z,10.23
2022-10-21T23:08:07.968Z,9.20
2022-10-21T23:10:35.656Z,9.50
2022-10-21T23:13:05.333Z,9.88
2022-10-21T23:15:33.628Z,9.98
2022-10-21T23:18:01.617Z,10.18
2022-10-21T23:20:29.654Z,9.90
2022-10-21T23:22:59.127Z,9.73
2022-10-21T23:25:30.307Z,10.50
2022-10-21T23:27:58.495Z,10.45
2022-10-21T23:30:27.500Z,9.82
2022-10-21T23:32:55.843Z,11.65
2022-10-21T23:35:26.752Z,9.60
2022-10-21T23:37:56.261Z,9.95
2022-10-21T23:40:26.571Z,10.35
2022-10-21T23:42:57.544Z,10.32
2022-10-21T23:45:25.298Z,10.75
2022-10-21T23:47:53.025Z,10.40
2022-10-21T23:50:20.979Z,10.60
2022-10-21T23:52:48.785Z,10.63
2022-10-21T23:55:16.875Z,9.77
2022-10-21T23:57:46.294Z,9.60
